Terminal Aerodrome Forecast
Issued by NWS

Home | Current Version | Previous Version | Graphics & Text | Print | Product List | Glossary On
Versions: 1 2 3 4 5 6 7 8 9 10 11 12 13 14 15 16 17 18 19
000
FTUS43 KICT 290534
TAFSLN
TAF
KSLN 290534Z 2906/3006 32015G22KT P6SM SCT250
     FM291000 34020G28KT P6SM BKN025
     FM291500 35022G30KT P6SM BKN025
     FM291900 35016G23KT P6SM SCT030
     FM292200 35014KT P6SM SCT035
     FM300000 34006KT P6SM SKC=

USA.gov is the U.S. government's official web portal to all federal, state and local government web resources and services.